Argamasilla de Calatrava, Spain
Current Conditions -  °F | °C
As of 1:41 PM on Saturday 20 Dec 2014 (Local Time) from LEAO Reporting Station
Moderate Fog Moderate Fog  
Wind Chill: 43°   Ceiling: 200
Heat Index: 43°   Visibility: 0.5mi
Dew Point: 43°   Wind: 0mph
Humidity: 100%   Direction: NA
Pressure: 30.5"   Gusts: NA
Location:  38.73°N, 4.08°W
Report Text: LEAO 201241Z 00000KT 0800 R27/1100U FG OVC002 06/06 Q1033
Loading
Personal Weather Stations






























Interactive Weather Map New forecast layout! Learn more

10-Day Weather Forecast

Advertisements
Track Severe Weather on mobile